Latest Weather Observations for Portland Harbour

IDV60801

Issued at 11:32 pm EDT Saturday 10 December 2016 (issued every 30 minutes, with the page automatically refreshed every 10 minutes)

About weather observations | Map of weather stations | Latest weather observations for VIC | Other Formats
Station Details ID: 090192 Name: PORTLAND NTC AWS Lat: -38.34 Lon: 141.61 Height: 0.0 m
Data from the previous 72 hours. | See also: Recent months for locations in Victoria
Date/Time
EDT
Temp
°C
App
Temp
°C
Dew
Point
°C
Rel
Hum
%
Delta-T
°C
Wind Press
QNH
hPa
Press
MSL
hPa
Rain since
9am
mm
Dir  Spd
km/h
Gust
km/h
Spd
kts
Gust
kts
10/11:30pm 13.1 - - - - WSW 6 9 3 5 1024.3 1024.3 -
10/11:00pm 13.6 - - - - SW 6 9 3 5 1024.4 1024.4 -
10/10:30pm 13.6 - - - - SSW 7 9 4 5 1024.4 1024.4 -
10/10:00pm 13.8 - - - - SW 9 11 5 6 1024.3 1024.3 -
10/09:30pm 13.9 - - - - SW 7 11 4 6 1024.1 1024.1 -
10/09:00pm 14.0 - - - - WSW 7 13 4 7 1024.0 1024.0 -
10/08:30pm 14.0 - - - - SW 11 15 6 8 1023.9 1023.9 -
10/08:00pm 14.0 - - - - SW 11 13 6 7 1023.7 1023.7 -
10/07:30pm 14.1 - - - - SW 15 20 8 11 1023.6 1023.6 -
10/07:00pm 14.4 - - - - SW 17 24 9 13 1023.4 1023.4 -
10/06:30pm 14.4 - - - - SW 19 26 10 14 1023.3 1023.3 -
10/06:00pm 14.3 - - - - WSW 19 26 10 14 1023.4 1023.4 -
10/05:30pm 12.9 - - - - WSW 20 30 11 16 1023.6 1023.6 -
10/05:00pm 14.8 - - - - SW 19 26 10 14 1023.4 1023.4 -
10/04:30pm 14.6 - - - - WSW 17 24 9 13 1023.5 1023.5 -
10/04:00pm 14.7 - - - - WSW 20 30 11 16 1023.5 1023.5 -
10/03:30pm 15.2 - - - - WSW 15 24 8 13 1023.7 1023.7 -
10/03:00pm 14.5 - - - - WSW 22 30 12 16 1024.0 1024.0 -
10/02:30pm 14.7 - - - - SW 22 33 12 18 1024.1 1024.1 -
10/02:00pm 14.3 - - - - SW 22 33 12 18 1024.4 1024.4 -
10/01:30pm 13.9 - - - - WSW 20 28 11 15 1024.5 1024.5 -
10/01:00pm 14.3 - - - - WSW 19 26 10 14 1024.4 1024.4 -
10/12:30pm 14.6 - - - - SW 13 22 7 12 1024.4 1024.4 -
10/12:00pm 14.4 - - - - SSW 15 20 8 11 1024.4 1024.4 -
10/11:30am 13.0 - - - - WSW 20 28 11 15 1024.6 1024.6 -
10/11:00am 13.9 - - - - WSW 19 28 10 15 1024.7 1024.7 -
10/10:30am 13.0 - - - - WSW 17 24 9 13 1024.6 1024.6 -
10/10:00am 12.1 - - - - W 17 22 9 12 1024.7 1024.7 -
10/09:30am 12.8 - - - - WNW 2 7 1 4 1024.6 1024.6 -
10/09:00am 12.1 - - - - NW 11 17 6 9 1024.4 1024.4 -
10/08:30am 11.7 - - - - NW 11 17 6 9 1024.1 1024.1 -
10/08:00am 11.4 - - - - NW 11 17 6 9 1023.9 1023.9 -
10/07:30am 11.6 - - - - NW 11 15 6 8 1023.6 1023.6 -
10/07:00am 11.0 - - - - NW 9 13 5 7 1023.2 1023.2 -
10/06:30am 10.9 - - - - NW 9 11 5 6 1022.9 1022.9 -
10/06:00am 10.6 - - - - WNW 9 11 5 6 1022.6 1022.6 -
10/05:30am 10.7 - - - - WNW 9 13 5 7 1022.6 1022.6 -
10/05:00am 10.4 - - - - W 9 13 5 7 1022.3 1022.3 -
10/04:30am 10.6 - - - - WNW 11 13 6 7 1022.1 1022.1 -
10/04:00am 10.8 - - - - WNW 9 11 5 6 1022.2 1022.2 -
10/03:30am 11.3 - - - - NW 9 11 5 6 1022.3 1022.3 -
10/03:00am 11.5 - - - - WNW 7 9 4 5 1022.4 1022.4 -
10/02:30am 11.6 - - - - WSW 6 7 3 4 1022.7 1022.7 -
10/02:00am 11.7 - - - - WSW 6 7 3 4 1022.7 1022.7 -
10/01:30am 12.3 - - - - SW 6 9 3 5 1022.8 1022.8 -
10/01:00am 12.0 - - - - SW 11 15 6 8 1023.1 1023.1 -
10/12:30am 12.6 - - - - SSW 9 11 5 6 1023.1 1023.1 -
10/12:00am 12.9 - - - - SSW 7 11 4 6 1023.2 1023.2 -
 
Date/Time
EDT
Temp
°C
App
Temp
°C
Dew
Point
°C
Rel
Hum
%
Delta-T
°C
Wind Press
QNH
hPa
Press
MSL
hPa
Rain since
9am
mm
Dir  Spd
km/h
Gust
km/h
Spd
kts
Gust
kts
09/11:30pm 12.4 - - - - WSW 6 9 3 5 1023.2 1023.2 -
09/11:00pm 12.5 - - - - WNW 6 7 3 4 1023.3 1023.3 -
09/10:30pm 12.9 - - - - SW 7 11 4 6 1023.3 1023.3 -
09/10:00pm 12.8 - - - - SW 6 7 3 4 1023.1 1023.1 -
09/09:30pm 12.7 - - - - SW 11 15 6 8 1023.1 1023.1 -
09/09:00pm 13.1 - - - - SW 9 13 5 7 1022.9 1022.9 -
09/08:30pm 13.3 - - - - SW 15 19 8 10 1022.8 1022.8 -
09/08:00pm 13.2 - - - - SW 15 20 8 11 1022.7 1022.7 -
09/07:30pm 13.2 - - - - SW 13 20 7 11 1022.5 1022.5 -
09/07:00pm 12.9 - - - - SW 22 28 12 15 1022.1 1022.1 -
09/06:30pm 13.5 - - - - SSW 20 26 11 14 1021.6 1021.6 -
09/06:00pm 13.7 - - - - SW 22 32 12 17 1021.6 1021.6 -
09/05:30pm 13.9 - - - - SSW 20 30 11 16 1021.6 1021.6 -
09/05:00pm 14.3 - - - - SW 22 32 12 17 1021.5 1021.5 -
09/04:30pm 13.7 - - - - SSW 26 35 14 19 1021.5 1021.5 -
09/04:00pm 13.8 - - - - SSW 24 33 13 18 1021.3 1021.3 -
09/03:30pm 13.3 - - - - SSW 22 30 12 16 1021.4 1021.4 -
09/03:00pm 13.0 - - - - SSW 22 35 12 19 1021.5 1021.5 -
09/02:30pm 13.1 - - - - SSW 24 33 13 18 1021.4 1021.4 -
09/02:00pm 14.2 - - - - SW 26 35 14 19 1021.1 1021.1 -
09/01:30pm 13.8 - - - - SW 30 44 16 24 1021.0 1021.0 -
09/01:00pm 14.4 - - - - SW 22 35 12 19 1020.7 1020.7 -
09/12:30pm 13.9 - - - - SSW 22 39 12 21 1020.5 1020.5 -
09/12:00pm 13.3 - - - - SSW 30 37 16 20 1020.4 1020.4 -
09/11:30am 13.7 - - - - SSW 26 33 14 18 1020.1 1020.1 -
09/11:00am 13.3 - - - - SSW 28 37 15 20 1019.9 1019.9 -
09/10:30am 13.8 - - - - SSW 26 39 14 21 1019.5 1019.5 -
09/10:00am 13.2 - - - - SSW 24 37 13 20 1019.4 1019.4 -
09/09:30am 13.1 - - - - SSW 28 39 15 21 1019.0 1019.0 -
09/09:00am 12.9 - - - - SW 22 32 12 17 1018.4 1018.4 -
09/08:30am 12.9 - - - - SSW 30 43 16 23 1017.8 1017.8 -
09/08:00am 13.0 - - - - SSW 30 37 16 20 1017.3 1017.3 -
09/07:30am 13.1 - - - - SSW 28 41 15 22 1016.6 1016.6 -
09/07:00am 12.8 - - - - SSW 30 46 16 25 1016.1 1016.1 -
09/06:30am 12.5 - - - - SSW 24 33 13 18 1015.7 1015.7 -
09/06:00am 12.6 - - - - SSW 28 39 15 21 1015.2 1015.2 -
09/05:35am 12.3 - - - - SSW 28 46 15 25 1014.8 1014.8 -
09/05:30am 12.3 - - - - SSW 30 46 16 25 1014.7 1014.7 -
09/05:00am 12.1 - - - - SW 28 37 15 20 1014.3 1014.3 -
09/04:30am 11.9 - - - - SSW 30 41 16 22 1013.8 1013.8 -
09/04:17am 12.1 - - - - SSW 28 48 15 26 1013.6 1013.6 -
09/04:00am 11.0 - - - - SW 24 37 13 20 1013.5 1013.5 -
09/03:30am 12.4 - - - - SSW 30 43 16 23 1013.1 1013.1 -
09/03:00am 12.5 - - - - SW 24 43 13 23 1012.9 1012.9 -
09/02:30am 12.1 - - - - SSW 26 35 14 19 1012.7 1012.7 -
09/02:00am 12.5 - - - - SW 26 41 14 22 1012.7 1012.7 -
09/01:30am 12.1 - - - - SSW 32 43 17 23 1012.6 1012.6 -
09/01:00am 12.5 - - - - SSW 28 44 15 24 1012.3 1012.3 -
09/12:31am 12.2 - - - - SSW 32 50 17 27 1012.2 1012.2 -
09/12:30am 12.2 - - - - SSW 33 50 18 27 1012.2 1012.2 -
09/12:18am 12.8 - - - - SSW 33 54 18 29 1012.1 1012.1 -
09/12:00am 12.0 - - - - SW 19 28 10 15 1012.0 1012.0 -
 
Date/Time
EDT
Temp
°C
App
Temp
°C
Dew
Point
°C
Rel
Hum
%
Delta-T
°C
Wind Press
QNH
hPa
Press
MSL
hPa
Rain since
9am
mm
Dir  Spd
km/h
Gust
km/h
Spd
kts
Gust
kts
08/11:30pm 13.2 - - - - SW 26 39 14 21 1011.5 1011.5 -
08/11:00pm 12.9 - - - - SW 22 32 12 17 1011.2 1011.2 -
08/10:30pm 13.1 - - - - SSW 33 46 18 25 1010.6 1010.6 -
08/10:00pm 12.6 - - - - SW 30 48 16 26 1010.0 1010.0 -
08/09:32pm 13.5 - - - - SW 28 48 15 26 1009.3 1009.3 -
08/09:30pm 13.4 - - - - SW 26 41 14 22 1009.3 1009.3 -
08/09:08pm 13.3 - - - - SW 32 57 17 31 1008.9 1008.9 -
08/09:00pm 13.6 - - - - SW 33 46 18 25 1008.7 1008.7 -
08/08:34pm 13.6 - - - - SW 32 54 17 29 1008.0 1008.0 -
08/08:30pm 13.8 - - - - SW 33 50 18 27 1008.0 1008.0 -
08/08:19pm 13.7 - - - - SW 37 57 20 31 1007.7 1007.7 -
08/08:00pm 13.9 - - - - SW 37 50 20 27 1007.3 1007.3 -
08/07:35pm 13.9 - - - - SW 35 54 19 29 1006.8 1006.8 -
08/07:30pm 13.9 - - - - SW 37 54 20 29 1006.7 1006.7 -
08/07:00pm 13.5 - - - - WSW 35 56 19 30 1006.1 1006.1 -
08/06:33pm 13.3 - - - - SW 35 54 19 29 1005.4 1005.4 -
08/06:30pm 13.5 - - - - SW 33 48 18 26 1005.4 1005.4 -
08/06:11pm 13.5 - - - - SW 41 63 22 34 1004.8 1004.8 -
08/06:00pm 13.2 - - - - SW 41 56 22 30 1004.6 1004.6 -
08/05:30pm 13.4 - - - - SW 41 59 22 32 1003.8 1003.8 -
08/05:03pm 13.2 - - - - SW 39 61 21 33 1003.2 1003.2 -
08/05:00pm 13.0 - - - - SW 39 56 21 30 1003.1 1003.1 -
08/04:30pm 12.7 - - - - SW 44 65 24 35 1002.5 1002.5 -
08/04:00pm 14.5 - - - - WSW 43 69 23 37 1001.4 1001.4 -
08/03:36pm 14.4 - - - - WSW 37 57 20 31 1000.7 1000.7 -
08/03:30pm 14.3 - - - - WSW 35 52 19 28 1000.9 1000.9 -
08/03:00pm 15.0 - - - - WSW 50 69 27 37 1000.5 1000.5 -
08/02:30pm 14.9 - - - - W 50 70 27 38 999.7 999.7 -
08/02:00pm 15.4 - - - - W 44 72 24 39 999.2 999.2 -
08/01:30pm 16.0 - - - - W 44 70 24 38 998.9 998.9 -
08/01:01pm 15.9 - - - - W 46 69 25 37 998.5 998.5 -
08/01:00pm 15.9 - - - - W 46 63 25 34 998.6 998.6 -
08/12:30pm 15.6 - - - - W 41 65 22 35 998.3 998.3 -
08/12:00pm 15.8 - - - - W 44 69 24 37 997.9 997.9 -
08/11:30am 14.9 - - - - W 43 72 23 39 997.7 997.7 -
08/11:00am 15.6 - - - - WNW 52 74 28 40 997.1 997.1 -
08/10:30am 15.6 - - - - WNW 50 83 27 45 997.0 997.0 -
08/10:00am 16.0 - - - - WNW 52 74 28 40 996.4 996.4 -
08/09:30am 16.1 - - - - WNW 48 76 26 41 996.0 996.0 -
08/09:06am 15.4 - - - - WNW 41 61 22 33 996.1 996.1 -
08/09:00am 15.7 - - - - WNW 43 59 23 32 996.1 996.1 -
08/08:30am 15.7 - - - - WNW 44 67 24 36 995.7 995.7 -
08/08:00am 15.2 - - - - W 46 70 25 38 995.6 995.6 -
08/07:30am 15.1 - - - - W 44 70 24 38 995.1 995.1 -
08/07:00am 15.4 - - - - W 37 57 20 31 994.5 994.5 -
08/06:30am 15.3 - - - - WNW 35 56 19 30 994.2 994.2 -
08/06:00am 17.4 - - - - WNW 43 65 23 35 993.3 993.3 -
08/05:45am 18.1 - - - - WNW 39 59 21 32 992.6 992.6 -
08/05:44am 18.2 - - - - WNW 39 57 21 31 992.7 992.7 -
08/05:31am 19.4 - - - - NW 33 69 18 37 992.0 992.0 -
08/05:30am 19.5 - - - - NW 32 46 17 25 992.2 992.2 -
08/05:10am 19.1 - - - - NNW 43 63 23 34 991.9 991.9 -
08/05:00am 19.4 - - - - NNW 44 59 24 32 991.9 991.9 -
08/04:35am 19.1 - - - - N 39 57 21 31 991.9 991.9 -
08/04:30am 18.9 - - - - N 37 46 20 25 992.1 992.1 -
08/04:00am 18.2 - - - - NNW 32 46 17 25 993.5 993.5 -
08/03:30am 19.8 - - - - N 44 56 24 30 993.2 993.2 -
08/03:00am 19.4 - - - - N 37 46 20 25 993.8 993.8 -
08/02:31am 20.4 - - - - NNW 33 54 18 29 994.9 994.9 -
08/02:30am 20.5 - - - - NNW 35 54 19 29 994.9 994.9 -
08/02:00am 22.1 - - - - N 44 52 24 28 993.8 993.8 -
08/01:31am 20.9 - - - - N 33 54 18 29 995.0 995.0 -
08/01:30am 20.9 - - - - N 32 48 17 26 995.0 995.0 -
08/01:00am 20.4 - - - - N 24 30 13 16 995.9 995.9 -
08/12:58am 20.4 - - - - N 22 30 12 16 995.8 995.8 -
08/12:30am 18.0 - - - - NE 7 11 4 6 997.2 997.2 -
08/12:00am 17.8 - - - - N 7 9 4 5 998.6 998.6 -

Other Formats:

Comma delimited format used in spreadsheet applications
http://www.bom.gov.au/fwo/IDV60801/IDV60801.95826.axf

JavaScript Object Notation format (JSON) in row-major order
http://www.bom.gov.au/fwo/IDV60801/IDV60801.95826.json